ORF weather

Norfolk International Airport
Norfolk, Virginia, United States

Public forecast

Using degrees Fahrenheit for public forecast. Weather courtesy of forecast.io.

Current aviation weather report (METAR) for Norfolk International Airport

Retrieved 2019/12/08 04:51 UTC (20 minutes ago):

KORF 080451Z 05009KT 10SM CLR 06/M03 A3047 RMK AO2 SLP316 T00561033 401170044

Aviation forecast (TAF) for Norfolk International Airport

Retrieved 2019-12-08 00:28 UTC (5 hours ago):

TAF KORF 072326Z 0800/0824 04007KT P6SM SKC FM081400 09008KT P6SM SCT250